Aviation Digital Data Service (ADDS)

Output produced by TAFs form (0944 UTC 31 July 2016)
found at http://aviationweather.gov/adds/tafs/
 
KAEG 310527Z 3106/0106 VRB05KT P6SM BKN120 
     TEMPO 3106/3108 12011KT 
     FM311800 25010KT P6SM FEW090 
     FM312200 22012G18KT P6SM VCSH SCT090 BKN150 
     FM010400 VRB05KT P6SM FEW090 BKN120